createdAt,value
2018-11-20T00:01:38.096Z,6.70
2018-11-20T00:04:30.864Z,6.87
2018-11-20T00:07:31.746Z,6.30
2018-11-20T00:10:29.378Z,6.70
2018-11-20T00:13:26.362Z,6.43
2018-11-20T00:16:15.580Z,6.63
2018-11-20T00:19:12.568Z,8.40
2018-11-20T00:22:17.284Z,8.23
2018-11-20T00:25:10.929Z,8.00
2018-11-20T00:27:59.477Z,8.43
2018-11-20T00:30:36.014Z,9.18
2018-11-20T00:33:31.647Z,10.43
2018-11-20T00:36:24.944Z,10.93
2018-11-20T00:39:37.838Z,9.40
2018-11-20T00:42:21.990Z,9.33
2018-11-20T00:45:25.583Z,9.27
2018-11-20T00:48:22.611Z,8.93
2018-11-20T00:51:15.807Z,7.77
2018-11-20T00:54:34.569Z,8.20
2018-11-20T00:57:37.581Z,7.80
2018-11-20T01:00:30.242Z,8.83
2018-11-20T01:03:18.818Z,9.00
2018-11-20T01:06:34.121Z,10.10
2018-11-20T01:12:59.972Z,8.83
2018-11-20T01:15:52.383Z,9.03
2018-11-20T01:18:47.111Z,8.63
2018-11-20T01:21:39.777Z,8.77
2018-11-20T01:24:33.130Z,8.50
2018-11-20T01:27:41.955Z,7.87
2018-11-20T01:30:43.854Z,8.38
2018-11-20T01:33:33.419Z,8.20
2018-11-20T01:36:21.355Z,7.33
2018-11-20T01:39:19.125Z,7.67
2018-11-20T01:42:23.705Z,6.97
2018-11-20T01:45:05.549Z,7.05
2018-11-20T01:47:54.544Z,6.70
2018-11-20T01:50:50.253Z,6.97
2018-11-20T01:53:38.311Z,7.20
2018-11-20T01:56:26.596Z,7.03
2018-11-20T01:59:14.301Z,7.57
2018-11-20T02:02:18.913Z,7.47
2018-11-20T02:05:20.653Z,8.27
2018-11-20T02:08:28.387Z,7.23
2018-11-20T02:11:21.255Z,7.77
2018-11-20T02:14:44.997Z,7.87
2018-11-20T02:18:08.838Z,8.40
2018-11-20T02:20:51.969Z,7.13
2018-11-20T02:23:41.506Z,8.47
2018-11-20T02:26:28.977Z,8.35
2018-11-20T02:29:17.328Z,8.47
2018-11-20T02:32:05.409Z,8.50
2018-11-20T02:35:13.281Z,8.97
2018-11-20T02:38:21.223Z,8.07
2018-11-20T02:41:09.456Z,8.13
2018-11-20T02:43:59.248Z,8.53
2018-11-20T02:46:53.966Z,8.27
2018-11-20T02:49:36.981Z,9.43
2018-11-20T02:52:35.609Z,8.30
2018-11-20T02:55:24.155Z,8.23
2018-11-20T02:58:25.839Z,8.93
2018-11-20T03:01:18.311Z,8.53
2018-11-20T03:04:13.556Z,8.90
2018-11-20T03:06:59.557Z,9.07
2018-11-20T03:09:50.326Z,12.43
2018-11-20T03:12:38.616Z,9.70
2018-11-20T03:15:26.716Z,9.40
2018-11-20T03:18:31.293Z,10.00
2018-11-20T03:21:17.569Z,9.87
2018-11-20T03:23:57.831Z,9.87
2018-11-20T03:26:47.389Z,10.03
2018-11-20T03:30:07.213Z,9.80
2018-11-20T03:32:59.783Z,10.68
2018-11-20T03:35:56.511Z,10.17
2018-11-20T03:38:44.623Z,9.97
2018-11-20T03:41:25.387Z,10.00
2018-11-20T03:44:06.739Z,9.57
2018-11-20T03:47:02.367Z,9.90
2018-11-20T03:50:00.965Z,9.67
2018-11-20T03:52:59.371Z,9.77
2018-11-20T03:55:40.267Z,10.07
2018-11-20T03:58:33.385Z,10.80
2018-11-20T04:01:37.900Z,9.37
2018-11-20T04:04:39.405Z,10.10
2018-11-20T04:07:37.497Z,9.43
2018-11-20T04:10:27.206Z,9.40
2018-11-20T04:13:16.771Z,10.30
2018-11-20T04:15:59.298Z,9.77
2018-11-20T04:18:54.881Z,9.55
2018-11-20T04:21:44.441Z,9.68
2018-11-20T04:24:34.017Z,10.15
2018-11-20T04:27:33.869Z,9.00
2018-11-20T04:31:13.771Z,9.13
2018-11-20T04:34:03.510Z,9.53
2018-11-20T04:37:03.317Z,10.28
2018-11-20T04:39:41.966Z,9.17
2018-11-20T04:42:30.270Z,10.10
2018-11-20T04:45:18.619Z,9.83
2018-11-20T04:48:08.187Z,9.83
2018-11-20T04:51:09.891Z,10.10
2018-11-20T04:54:05.207Z,10.27
2018-11-20T04:57:57.992Z,10.37
2018-11-20T05:00:48.730Z,9.60
2018-11-20T05:03:43.500Z,10.40
2018-11-20T05:06:30.759Z,10.50
2018-11-20T05:09:17.706Z,10.50
2018-11-20T05:12:05.876Z,10.33
2018-11-20T05:15:12.923Z,10.23
2018-11-20T05:18:07.237Z,9.57
2018-11-20T05:20:54.413Z,11.03
2018-11-20T05:23:45.945Z,10.33
2018-11-20T05:26:43.631Z,9.23
2018-11-20T05:29:30.575Z,9.75
2018-11-20T05:32:17.445Z,9.23
2018-11-20T05:35:18.047Z,9.90
2018-11-20T05:37:55.547Z,9.53
2018-11-20T05:40:35.927Z,9.00
2018-11-20T05:43:23.947Z,10.85
2018-11-20T05:46:16.812Z,10.40
2018-11-20T05:49:11.111Z,10.07
2018-11-20T05:51:57.965Z,9.77
2018-11-20T05:54:40.416Z,10.68
2018-11-20T05:57:27.468Z,11.30
2018-11-20T06:00:15.809Z,11.20
2018-11-20T06:03:13.085Z,11.17
2018-11-20T06:06:01.483Z,11.47
2018-11-20T06:08:41.846Z,11.00
2018-11-20T06:11:31.114Z,11.68
2018-11-20T06:14:22.171Z,10.57
2018-11-20T06:17:08.965Z,10.93
2018-11-20T06:19:53.685Z,10.53
2018-11-20T06:22:50.961Z,10.20
2018-11-20T06:25:45.582Z,12.47
2018-11-20T06:28:33.135Z,10.50
2018-11-20T06:31:27.377Z,10.07
2018-11-20T06:34:13.056Z,11.43
2018-11-20T06:37:04.084Z,10.43
2018-11-20T06:40:00.584Z,10.97
2018-11-20T06:42:47.732Z,11.73
2018-11-20T06:45:48.401Z,12.40
2018-11-20T06:48:49.467Z,11.17
2018-11-20T06:51:25.268Z,12.07
2018-11-20T06:54:16.978Z,11.57
2018-11-20T06:57:23.400Z,12.20
2018-11-20T07:00:29.996Z,11.87
2018-11-20T07:03:27.009Z,13.30
2018-11-20T07:06:08.884Z,13.03
2018-11-20T07:08:56.216Z,13.13
2018-11-20T07:11:42.001Z,13.97
2018-11-20T07:14:33.226Z,12.98
2018-11-20T07:17:28.460Z,12.97
2018-11-20T07:20:17.966Z,12.87
2018-11-20T07:23:12.140Z,12.07
2018-11-20T07:25:49.365Z,13.30
2018-11-20T07:28:36.016Z,13.45
2018-11-20T07:31:23.553Z,14.23
2018-11-20T07:34:10.475Z,14.20
2018-11-20T07:36:57.608Z,15.17
2018-11-20T07:39:48.540Z,15.43
2018-11-20T07:42:26.617Z,15.17
2018-11-20T07:45:10.440Z,13.30
2018-11-20T07:48:01.943Z,14.40
2018-11-20T07:50:38.833Z,13.50
2018-11-20T07:53:25.995Z,14.68
2018-11-20T07:56:17.180Z,15.97
2018-11-20T07:59:07.656Z,13.23
2018-11-20T08:01:58.580Z,14.37
2018-11-20T08:04:52.744Z,12.93
2018-11-20T08:07:33.908Z,13.43
2018-11-20T08:10:10.127Z,12.60
2018-11-20T08:12:55.687Z,12.67
2018-11-20T08:15:34.600Z,13.40
2018-11-20T08:18:22.054Z,12.50
2018-11-20T08:21:10.447Z,12.53
2018-11-20T08:23:57.718Z,13.17
2018-11-20T08:26:49.047Z,11.93
2018-11-20T08:29:40.340Z,13.27
2018-11-20T08:32:26.236Z,13.07
2018-11-20T08:35:20.593Z,12.23
2018-11-20T08:38:12.653Z,11.77
2018-11-20T08:40:59.513Z,12.40
2018-11-20T08:43:47.827Z,12.00
2018-11-20T08:46:34.650Z,11.97
2018-11-20T08:49:32.374Z,12.20
2018-11-20T08:52:29.766Z,13.10
2018-11-20T08:55:16.625Z,11.73
2018-11-20T08:58:03.548Z,12.50
2018-11-20T09:01:00.833Z,13.37
2018-11-20T09:03:47.585Z,13.27
2018-11-20T09:06:41.612Z,13.28
2018-11-20T09:09:28.649Z,13.40
2018-11-20T09:12:23.088Z,13.70
2018-11-20T09:15:17.387Z,13.40
2018-11-20T09:18:08.719Z,13.77
2018-11-20T09:21:03.128Z,13.77
2018-11-20T09:23:47.636Z,14.33
2018-11-20T09:26:51.113Z,13.50
2018-11-20T09:29:42.157Z,13.40
2018-11-20T09:32:26.880Z,14.63
2018-11-20T09:35:18.530Z,13.77
2018-11-20T09:37:59.650Z,13.90
2018-11-20T09:41:04.287Z,14.47
2018-11-20T09:44:46.074Z,13.33
2018-11-20T09:47:47.010Z,13.25
2018-11-20T09:50:24.013Z,12.90
2018-11-20T09:53:25.643Z,13.70
2018-11-20T09:56:12.348Z,13.03
2018-11-20T09:59:00.713Z,13.00
2018-11-20T10:01:51.546Z,14.00
2018-11-20T10:04:38.432Z,13.50
2018-11-20T10:07:42.030Z,14.27
2018-11-20T10:10:28.872Z,13.85
2018-11-20T10:13:26.329Z,12.60
2018-11-20T10:16:14.600Z,13.10
2018-11-20T10:18:54.719Z,13.47
2018-11-20T10:21:41.642Z,13.95
2018-11-20T10:24:29.908Z,14.43
2018-11-20T10:27:18.351Z,12.37
2018-11-20T10:29:59.579Z,12.93
2018-11-20T10:32:46.378Z,13.83
2018-11-20T10:35:33.799Z,13.60
2018-11-20T10:38:21.554Z,13.03
2018-11-20T10:41:08.429Z,13.40
2018-11-20T10:44:02.400Z,13.23
2018-11-20T10:46:49.326Z,13.17
2018-11-20T10:49:34.397Z,14.40
2018-11-20T10:52:25.566Z,15.20
2018-11-20T10:55:13.448Z,14.63
2018-11-20T10:57:58.791Z,14.00
2018-11-20T11:00:45.682Z,14.27
2018-11-20T11:03:46.011Z,15.08
2018-11-20T11:06:35.336Z,14.07
2018-11-20T11:09:21.884Z,13.90
2018-11-20T11:12:00.056Z,14.20
2018-11-20T11:14:48.428Z,14.47
2018-11-20T11:17:39.777Z,15.70
2018-11-20T11:20:26.956Z,15.57
2018-11-20T11:23:18.153Z,15.43
2018-11-20T11:25:59.433Z,14.83
2018-11-20T11:29:06.268Z,14.93
2018-11-20T11:31:52.619Z,16.27
2018-11-20T11:34:43.735Z,14.90
2018-11-20T11:37:31.716Z,17.17
2018-11-20T11:40:22.726Z,15.73
2018-11-20T11:43:08.368Z,15.50
2018-11-20T11:46:04.302Z,14.63
2018-11-20T11:48:55.625Z,16.10
2018-11-20T11:51:38.436Z,16.90
2018-11-20T11:54:31.418Z,15.30
2018-11-20T11:57:38.198Z,16.27
2018-11-20T12:00:23.123Z,16.90
2018-11-20T12:03:11.482Z,16.60
2018-11-20T12:05:51.810Z,18.13
2018-11-20T12:08:39.789Z,16.15
2018-11-20T12:11:28.159Z,16.77
2018-11-20T12:14:22.532Z,16.03
2018-11-20T12:17:08.315Z,16.20
2018-11-20T12:20:08.900Z,17.67
2018-11-20T12:22:56.526Z,17.20
2018-11-20T12:25:56.757Z,16.40
